Time;durP1;ratioP1;P1;durP2;ratioP2;P2;SDS_P1;SDS_P2;PMS_P1;PMS_P2;Temp;Humidity;BMP_temperature;BMP_pressure;BME280_temperature;BME280_humidity;BME280_pressure;Samples;Min_cycle;Max_cycle;Signal;HPM_P1;HPM_P2
2023/08/05 00:08:53;;;;;;;;;;;;;;;16.07;90.34;101700.69;21087651;27;19928;-62
2023/08/05 00:19:15;;;;;;;;;;;;;;;15.93;90.86;101714.28;21072604;28;20366;-61
2023/08/05 00:29:36;;;;;;;;;;;;;;;15.81;92.20;101704.31;21080685;27;20001;-64
2023/08/05 00:39:58;;;;;;;;;;;;;;;15.74;91.88;101694.16;21101280;27;19927;-61
2023/08/05 00:50:19;;;;;;;;;;;;;;;15.61;92.40;101688.53;21072594;28;19931;-61
2023/08/05 01:00:41;;;;;;;;;;;;;;;15.47;92.58;101687.34;21082718;27;20247;-61
2023/08/05 01:11:03;;;;;;;;;;;;;;;15.32;92.67;101687.84;21081662;27;19939;-61
2023/08/05 01:21:43;;;;;;;;;;;;;;;15.16;93.18;101686.69;21083490;27;20692;-62
2023/08/05 01:32:06;;;;;;;;;;;;;;;15.11;93.95;101679.03;21089454;27;19928;-61
2023/08/05 01:42:27;;;;;;;;;;;;;;;15.14;94.17;101684.97;21092445;27;19928;-60
2023/08/05 01:52:51;;;;;;;;;;;;;;;15.09;94.57;101694.72;21084162;27;19924;-61
2023/08/05 02:03:12;;;;;;;;;;;;;;;15.13;94.85;101689.41;21089271;28;19934;-61
2023/08/05 02:13:34;;;;;;;;;;;;;;;15.13;95.83;101698.06;21098534;28;19931;-60
2023/08/05 02:23:55;;;;;;;;;;;;;;;15.10;94.98;101699.06;21085118;28;20324;-60
2023/08/05 02:34:18;;;;;;;;;;;;;;;15.11;95.28;101705.94;21070133;28;20697;-61
2023/08/05 02:44:40;;;;;;;;;;;;;;;15.08;95.42;101695.63;21084886;28;19939;-60
2023/08/05 02:55:02;;;;;;;;;;;;;;;15.02;96.34;101701.06;21078167;28;19927;-60
2023/08/05 03:05:24;;;;;;;;;;;;;;;14.98;96.73;101699.44;21103096;27;19979;-60
2023/08/05 03:15:45;;;;;;;;;;;;;;;14.89;96.88;101683.25;21095594;27;20333;-60
2023/08/05 03:26:07;;;;;;;;;;;;;;;14.91;98.36;101684.94;21083709;27;19925;-60
2023/08/05 03:36:28;;;;;;;;;;;;;;;14.94;97.42;101671.78;21095809;27;20312;-61
2023/08/05 03:46:50;;;;;;;;;;;;;;;14.91;97.45;101666.69;21094809;27;19924;-60
2023/08/05 03:57:12;;;;;;;;;;;;;;;14.95;97.36;101652.66;21080855;27;19924;-60
2023/08/05 04:07:33;;;;;;;;;;;;;;;15.01;97.41;101652.44;21092567;27;20512;-60
2023/08/05 04:17:59;;;;;;;;;;;;;;;14.96;97.48;101630.88;21088330;27;19986;-60
2023/08/05 04:28:21;;;;;;;;;;;;;;;15.03;96.47;101621.09;21090378;28;19978;-60
2023/08/05 04:38:43;;;;;;;;;;;;;;;15.20;96.20;101615.28;21094079;28;20000;-61
2023/08/05 04:49:07;;;;;;;;;;;;;;;15.31;96.04;101597.50;21090143;27;19932;-61
2023/08/05 04:59:28;;;;;;;;;;;;;;;15.52;97.21;101591.47;21079113;27;19924;-60
2023/08/05 05:09:50;;;;;;;;;;;;;;;15.68;94.32;101589.97;21086555;27;19931;-60
2023/08/05 05:20:12;;;;;;;;;;;;;;;15.76;93.27;101573.13;21091151;27;19932;-61
2023/08/05 05:30:36;;;;;;;;;;;;;;;15.86;93.82;101581.44;21092737;28;20369;-60
2023/08/05 05:40:57;;;;;;;;;;;;;;;15.79;93.72;101564.31;21089574;28;20487;-60
2023/08/05 05:51:19;;;;;;;;;;;;;;;15.99;95.81;101575.66;21079382;28;19931;-60
2023/08/05 06:01:40;;;;;;;;;;;;;;;16.16;93.78;101580.22;21080531;28;20019;-60
2023/08/05 06:12:02;;;;;;;;;;;;;;;16.35;92.91;101582.91;21075741;28;20652;-61
2023/08/05 06:22:24;;;;;;;;;;;;;;;16.55;90.87;101573.38;21085781;28;19932;-60
2023/08/05 06:32:45;;;;;;;;;;;;;;;16.77;88.01;101584.59;21086938;27;20056;-60
2023/08/05 06:43:07;;;;;;;;;;;;;;;17.00;87.27;101573.09;21094796;27;19927;-61
2023/08/05 06:53:29;;;;;;;;;;;;;;;17.20;86.55;101561.75;21089727;27;19924;-60
2023/08/05 07:03:50;;;;;;;;;;;;;;;17.47;84.33;101576.19;21098019;28;20017;-60
2023/08/05 07:14:12;;;;;;;;;;;;;;;17.75;83.52;101577.47;21090790;27;19928;-60
2023/08/05 07:24:33;;;;;;;;;;;;;;;17.98;82.44;101573.75;21093646;27;19924;-60
2023/08/05 07:34:55;;;;;;;;;;;;;;;18.09;79.03;101550.50;21095745;28;19938;-61
2023/08/05 07:45:18;;;;;;;;;;;;;;;18.26;79.25;101553.13;21090213;27;20087;-62
2023/08/05 07:55:42;;;;;;;;;;;;;;;18.32;80.73;101547.56;21095876;27;20031;-61
2023/08/05 08:06:03;;;;;;;;;;;;;;;18.42;79.36;101533.09;21099008;27;19932;-60
2023/08/05 08:16:25;;;;;;;;;;;;;;;18.47;78.10;101509.28;21107908;27;19931;-60
2023/08/05 08:26:46;;;;;;;;;;;;;;;18.66;80.10;101497.75;21093175;27;20421;-61
2023/08/05 08:37:08;;;;;;;;;;;;;;;18.83;79.73;101502.94;21097665;27;19928;-60
2023/08/05 08:47:29;;;;;;;;;;;;;;;19.16;74.06;101484.53;21082237;28;19928;-60
2023/08/05 08:57:51;;;;;;;;;;;;;;;19.29;76.82;101479.44;21087423;27;19928;-60
2023/08/05 09:08:12;;;;;;;;;;;;;;;19.32;76.71;101468.84;21093471;27;19931;-60
2023/08/05 09:18:41;;;;;;;;;;;;;;;19.30;75.68;101470.66;21085919;28;19930;-61
2023/08/05 09:29:04;;;;;;;;;;;;;;;19.46;70.93;101458.41;21083855;27;19923;-60
2023/08/05 09:39:30;;;;;;;;;;;;;;;19.36;71.40;101454.56;21084112;28;20668;-62
2023/08/05 09:49:52;;;;;;;;;;;;;;;19.65;77.33;101438.03;21079065;27;19932;-60
2023/08/05 10:00:14;;;;;;;;;;;;;;;19.94;72.32;101424.06;21089280;28;19971;-61
2023/08/05 10:10:37;;;;;;;;;;;;;;;20.10;71.02;101392.44;21070861;28;19951;-60
2023/08/05 10:21:03;;;;;;;;;;;;;;;20.19;75.03;101379.63;21067106;28;19959;-61
2023/08/05 10:31:36;;;;;;;;;;;;;;;20.15;75.58;101383.34;21086193;28;19997;-61
2023/08/05 10:41:57;;;;;;;;;;;;;;;20.21;75.50;101351.44;21083288;28;19924;-61
2023/08/05 10:52:19;;;;;;;;;;;;;;;20.37;77.67;101339.03;21083338;28;19924;-61
2023/08/05 11:02:41;;;;;;;;;;;;;;;20.86;75.44;101311.31;21085993;28;19924;-60
2023/08/05 11:13:03;;;;;;;;;;;;;;;21.02;74.80;101306.75;21085109;28;19939;-60
2023/08/05 11:23:25;;;;;;;;;;;;;;;20.92;73.98;101294.28;21100952;27;19927;-60
2023/08/05 11:33:48;;;;;;;;;;;;;;;21.28;71.78;101283.16;21095372;28;19955;-61
2023/08/05 11:44:09;;;;;;;;;;;;;;;21.30;71.84;101270.72;21084707;28;19959;-60
2023/08/05 11:54:34;;;;;;;;;;;;;;;21.33;68.26;101259.97;21109953;27;20439;-61
2023/08/05 12:04:56;;;;;;;;;;;;;;;21.64;69.57;101254.28;21091700;28;19932;-61
2023/08/05 12:15:27;;;;;;;;;;;;;;;21.73;70.06;101238.69;21095131;27;20305;-61
2023/08/05 12:25:50;;;;;;;;;;;;;;;21.88;69.53;101228.91;21097844;27;19924;-61
2023/08/05 12:36:12;;;;;;;;;;;;;;;21.81;66.88;101217.13;21081031;27;20343;-61
2023/08/05 12:46:33;;;;;;;;;;;;;;;21.91;68.01;101205.81;21099672;27;20432;-60
2023/08/05 12:56:55;;;;;;;;;;;;;;;21.83;69.79;101180.94;21089878;28;19931;-61
2023/08/05 13:07:16;;;;;;;;;;;;;;;22.21;69.05;101160.59;21077427;28;19924;-60
2023/08/05 13:17:38;;;;;;;;;;;;;;;22.42;69.67;101144.97;21111411;27;20411;-61
2023/08/05 13:27:59;;;;;;;;;;;;;;;22.15;66.63;101144.34;21093642;28;19963;-61
2023/08/05 13:38:21;;;;;;;;;;;;;;;22.09;66.42;101135.09;21099610;28;19928;-61
2023/08/05 13:48:42;;;;;;;;;;;;;;;22.20;66.35;101116.69;21075922;28;20652;-61
2023/08/05 13:59:04;;;;;;;;;;;;;;;22.17;69.41;101095.84;21085111;28;19924;-61
2023/08/05 14:09:25;;;;;;;;;;;;;;;22.21;68.74;101076.19;21090879;28;19924;-61
2023/08/05 14:19:47;;;;;;;;;;;;;;;22.17;66.20;101072.09;21084091;28;19925;-60
2023/08/05 14:30:09;;;;;;;;;;;;;;;22.12;64.78;101058.44;21089696;28;19982;-61
2023/08/05 14:40:50;;;;;;;;;;;;;;;21.99;67.81;101044.47;21082831;28;19931;-62
2023/08/05 14:51:11;;;;;;;;;;;;;;;21.90;68.14;101037.25;21081692;28;19971;-61
2023/08/05 15:01:33;;;;;;;;;;;;;;;21.86;70.15;101036.63;21118319;27;20022;-61
2023/08/05 15:11:54;;;;;;;;;;;;;;;21.84;70.06;101013.97;21097431;27;19942;-60
2023/08/05 15:22:16;;;;;;;;;;;;;;;21.95;69.71;101011.38;21117521;27;19928;-61
2023/08/05 15:32:38;;;;;;;;;;;;;;;21.92;69.74;101011.63;21099162;28;19931;-61
2023/08/05 15:42:59;;;;;;;;;;;;;;;21.71;67.41;101000.81;21106066;27;19924;-60
2023/08/05 15:53:21;;;;;;;;;;;;;;;21.64;70.37;101012.78;21083256;27;20282;-60
2023/08/05 16:03:42;;;;;;;;;;;;;;;21.58;70.55;100993.91;21096349;27;19924;-61
2023/08/05 16:14:04;;;;;;;;;;;;;;;21.55;71.57;100991.50;21097249;27;20376;-60
2023/08/05 16:24:25;;;;;;;;;;;;;;;21.42;73.78;100959.13;21101086;27;19928;-60
2023/08/05 16:34:47;;;;;;;;;;;;;;;21.33;74.60;100965.06;21103320;27;20070;-61
2023/08/05 16:45:09;;;;;;;;;;;;;;;21.19;75.71;100942.34;21111767;27;19947;-61
2023/08/05 16:55:30;;;;;;;;;;;;;;;21.16;75.43;100931.19;21088903;27;20556;-60
2023/08/05 17:05:52;;;;;;;;;;;;;;;21.11;76.09;100922.78;21104979;27;19967;-61
2023/08/05 17:16:14;;;;;;;;;;;;;;;21.04;76.17;100905.78;21093293;27;20771;-61
2023/08/05 17:26:35;;;;;;;;;;;;;;;19.93;71.22;101004.59;21082258;28;19934;-61
2023/08/05 17:36:57;;;;;;;;;;;;;;;17.87;87.10;101036.59;21089158;28;19932;-60
2023/08/05 17:47:18;;;;;;;;;;;;;;;17.16;90.96;101058.00;21095840;27;19944;-61
2023/08/05 17:57:40;;;;;;;;;;;;;;;16.89;95.38;101066.38;21087451;28;20344;-61
2023/08/05 18:08:02;;;;;;;;;;;;;;;16.72;96.67;101069.00;21088714;28;20019;-61
2023/08/05 18:18:23;;;;;;;;;;;;;;;16.71;100.00;101062.09;21086923;28;19963;-60
2023/08/05 18:28:45;;;;;;;;;;;;;;;16.73;100.00;101017.59;21075559;28;20268;-61
2023/08/05 18:39:09;;;;;;;;;;;;;;;16.78;100.00;101021.66;21110346;28;19924;-61
2023/08/05 18:49:31;;;;;;;;;;;;;;;16.76;100.00;101023.50;21081723;27;20382;-61
2023/08/05 18:59:52;;;;;;;;;;;;;;;16.74;100.00;101025.34;21106751;27;19934;-61
2023/08/05 19:10:14;;;;;;;;;;;;;;;16.78;100.00;101013.81;21097705;28;19928;-61
2023/08/05 19:20:35;;;;;;;;;;;;;;;16.69;100.00;101011.69;21094123;28;19924;-61
2023/08/05 19:30:57;;;;;;;;;;;;;;;16.66;100.00;101022.31;21096229;28;19930;-61
2023/08/05 19:41:19;;;;;;;;;;;;;;;16.62;100.00;101020.78;21109777;27;19981;-61
2023/08/05 19:51:40;;;;;;;;;;;;;;;16.63;100.00;101008.53;21098575;28;20463;-61
2023/08/05 20:02:02;;;;;;;;;;;;;;;16.52;100.00;100977.75;21097575;28;19934;-61
2023/08/05 20:12:24;;;;;;;;;;;;;;;16.53;100.00;100957.69;21105098;28;19959;-61
2023/08/05 20:22:45;;;;;;;;;;;;;;;16.48;100.00;100952.69;21098447;27;19923;-62
2023/08/05 20:33:08;;;;;;;;;;;;;;;16.50;100.00;100945.63;21087095;27;19935;-61
2023/08/05 20:43:30;;;;;;;;;;;;;;;16.42;100.00;100939.94;21086055;27;19931;-61
2023/08/05 20:53:52;;;;;;;;;;;;;;;16.36;100.00;100939.41;21091222;27;19927;-61
2023/08/05 21:04:14;;;;;;;;;;;;;;;16.32;100.00;100927.41;21091331;27;19998;-61
2023/08/05 21:14:35;;;;;;;;;;;;;;;16.35;100.00;100912.47;21087766;28;19949;-61
2023/08/05 21:24:58;;;;;;;;;;;;;;;16.27;100.00;100913.75;21079040;28;20388;-61
2023/08/05 21:35:19;;;;;;;;;;;;;;;16.24;100.00;100906.09;21090501;28;20027;-62
2023/08/05 21:45:47;;;;;;;;;;;;;;;16.20;100.00;100894.97;21088311;27;19928;-60
2023/08/05 21:56:09;;;;;;;;;;;;;;;16.21;100.00;100873.13;21091947;27;19967;-61
2023/08/05 22:06:30;;;;;;;;;;;;;;;16.15;100.00;100863.03;21097895;28;19927;-61
2023/08/05 22:16:52;;;;;;;;;;;;;;;16.16;100.00;100859.50;21078262;28;19934;-61
2023/08/05 22:27:13;;;;;;;;;;;;;;;16.13;100.00;100868.31;21071229;28;19932;-61
2023/08/05 22:37:35;;;;;;;;;;;;;;;16.12;100.00;100855.34;21084867;28;19924;-61
2023/08/05 22:47:56;;;;;;;;;;;;;;;16.03;100.00;100858.44;21085237;28;19928;-61
2023/08/05 22:58:18;;;;;;;;;;;;;;;15.99;100.00;100836.88;21082235;28;20744;-61
2023/08/05 23:08:39;;;;;;;;;;;;;;;15.92;100.00;100839.88;21080629;28;19924;-61
2023/08/05 23:19:01;;;;;;;;;;;;;;;15.93;100.00;100824.13;21080324;28;19946;-61
2023/08/05 23:29:22;;;;;;;;;;;;;;;15.91;100.00;100820.75;21098489;27;19938;-61
2023/08/05 23:39:44;;;;;;;;;;;;;;;15.95;100.00;100808.41;21101957;27;19992;-62
2023/08/05 23:50:06;;;;;;;;;;;;;;;15.87;100.00;100800.13;21089551;27;19934;-61
